createdAt,value
2022-11-30T00:03:32.118Z,100958.22
2022-11-30T00:08:34.033Z,100952.41
2022-11-30T00:13:35.632Z,100953.19
2022-11-30T00:18:37.569Z,100948.66
2022-11-30T00:23:41.658Z,100946.97
2022-11-30T00:28:43.688Z,100958.44
2022-11-30T00:33:45.644Z,100950.16
2022-11-30T00:38:47.220Z,100953.53
2022-11-30T00:43:48.833Z,100954.63
2022-11-30T00:48:50.313Z,100958.31
2022-11-30T00:53:51.742Z,100948.75
2022-11-30T00:58:53.216Z,100948.34
2022-11-30T01:03:54.669Z,100952.63
2022-11-30T01:08:56.249Z,100941.56
2022-11-30T01:13:59.777Z,100953.78
2022-11-30T01:19:01.243Z,100955.59
2022-11-30T01:24:02.685Z,100947.81
2022-11-30T01:29:04.145Z,100957.81
2022-11-30T01:34:05.633Z,100951.31
2022-11-30T01:39:08.537Z,100945.66
2022-11-30T01:44:19.783Z,100944.00
2022-11-30T01:49:35.169Z,100942.94
2022-11-30T01:55:06.625Z,100942.25
2022-11-30T02:00:11.798Z,100947.94
2022-11-30T02:05:16.092Z,100944.25
2022-11-30T02:10:22.997Z,100947.44
2022-11-30T02:15:29.531Z,100945.81
2022-11-30T02:21:06.437Z,100954.03
2022-11-30T02:26:35.886Z,100951.91
2022-11-30T02:31:44.689Z,100953.13
2022-11-30T02:36:48.074Z,100952.28
2022-11-30T02:41:49.518Z,100950.38
2022-11-30T02:47:07.326Z,100949.56
2022-11-30T02:52:10.394Z,100951.63
2022-11-30T02:57:11.906Z,100959.63
2022-11-30T03:02:13.413Z,100946.34
2022-11-30T03:07:14.853Z,100950.88
2022-11-30T03:12:16.733Z,100948.25
2022-11-30T03:17:18.565Z,100954.34
2022-11-30T03:22:20.066Z,100954.44
2022-11-30T03:27:21.490Z,100955.28
2022-11-30T03:32:22.941Z,100962.25
2022-11-30T03:37:24.487Z,100957.91
2022-11-30T03:42:25.927Z,100957.91
2022-11-30T03:47:27.394Z,100961.00
2022-11-30T03:52:28.864Z,100959.00
2022-11-30T03:57:30.275Z,100957.31
2022-11-30T04:02:31.818Z,100961.94
2022-11-30T04:07:33.434Z,100962.56
2022-11-30T04:12:34.855Z,100957.00
2022-11-30T04:17:36.331Z,100958.03
2022-11-30T04:22:38.299Z,100968.91
2022-11-30T04:27:39.718Z,100956.38
2022-11-30T04:32:41.570Z,100963.41
2022-11-30T04:37:43.001Z,100969.84
2022-11-30T04:42:44.451Z,100977.94
2022-11-30T04:47:45.841Z,100984.06
2022-11-30T04:52:47.454Z,100977.94
2022-11-30T04:57:49.267Z,100985.03
2022-11-30T05:02:53.219Z,100985.53
2022-11-30T05:07:57.123Z,100979.84
2022-11-30T05:12:58.691Z,100976.38
2022-11-30T05:18:01.751Z,100977.34
2022-11-30T05:23:03.261Z,100972.06
2022-11-30T05:28:04.757Z,100972.59
2022-11-30T05:33:06.707Z,100963.03
2022-11-30T05:38:08.210Z,100971.13
2022-11-30T05:43:10.206Z,100972.69
2022-11-30T05:48:11.655Z,100977.22
2022-11-30T05:53:13.095Z,100986.59
2022-11-30T05:58:14.634Z,100988.41
2022-11-30T06:03:16.219Z,100995.78
2022-11-30T06:08:19.065Z,100990.47
2022-11-30T06:13:24.695Z,100991.63
2022-11-30T06:18:29.285Z,100989.13
2022-11-30T06:23:31.613Z,100995.25
2022-11-30T06:28:33.396Z,100991.78
2022-11-30T06:33:35.209Z,100993.66
2022-11-30T06:38:36.875Z,100990.53
2022-11-30T06:43:39.666Z,101001.56
2022-11-30T06:48:41.338Z,100999.84
2022-11-30T06:53:43.509Z,101006.34
2022-11-30T06:58:44.991Z,101018.09
2022-11-30T07:03:46.469Z,101011.03
2022-11-30T07:08:47.888Z,101019.78
2022-11-30T07:13:49.305Z,101020.41
2022-11-30T07:18:50.724Z,101023.69
2022-11-30T07:23:56.265Z,101024.53
2022-11-30T07:33:16.061Z,101038.03
2022-11-30T08:05:17.608Z,101054.50
2022-11-30T08:10:23.702Z,101047.66
2022-11-30T08:15:32.216Z,101057.34
2022-11-30T08:20:34.575Z,101049.22
2022-11-30T08:25:36.037Z,101055.22
2022-11-30T08:30:37.528Z,101057.13
2022-11-30T08:35:39.176Z,101055.09
2022-11-30T08:40:40.680Z,101060.06
2022-11-30T08:45:42.282Z,101054.59
2022-11-30T08:50:43.790Z,101051.44
2022-11-30T08:55:55.570Z,101057.78
2022-11-30T09:01:09.920Z,101056.84
2022-11-30T09:06:14.244Z,101060.31
2022-11-30T09:11:21.454Z,101066.50
2022-11-30T09:16:23.891Z,101071.13
2022-11-30T09:38:03.267Z,101068.47
2022-11-30T09:43:37.825Z,101084.81
2022-11-30T09:49:23.783Z,101080.28
2022-11-30T09:54:33.025Z,101082.06
2022-11-30T09:59:37.850Z,101078.19
2022-11-30T10:04:39.275Z,101082.59
2022-11-30T10:10:09.413Z,101085.53
2022-11-30T10:15:26.806Z,101075.31
2022-11-30T10:21:09.664Z,101075.75
2022-11-30T10:26:25.840Z,101069.41
2022-11-30T10:31:35.767Z,101076.81
2022-11-30T10:36:41.596Z,101075.22
2022-11-30T10:41:50.695Z,101064.47
2022-11-30T10:47:05.237Z,101060.25
2022-11-30T10:52:09.166Z,101064.69
2022-11-30T10:57:11.917Z,101057.53
2022-11-30T11:02:35.221Z,101054.88
2022-11-30T11:23:51.466Z,101054.47
2022-11-30T11:28:54.989Z,101053.72
2022-11-30T11:50:13.173Z,101058.34
2022-11-30T11:55:18.638Z,101054.03
2022-11-30T12:00:22.399Z,101052.97
2022-11-30T12:05:31.333Z,101053.50
2022-11-30T12:10:54.653Z,101043.59
2022-11-30T12:16:12.947Z,101046.00
2022-11-30T12:21:21.277Z,101038.53
2022-11-30T12:26:32.229Z,101041.16
2022-11-30T12:31:46.385Z,101042.97
2022-11-30T12:37:22.248Z,101044.75
2022-11-30T12:42:34.935Z,101047.78
2022-11-30T12:47:54.552Z,101042.31
2022-11-30T12:53:22.213Z,101055.69
2022-11-30T12:58:46.749Z,101058.53
2022-11-30T13:04:04.772Z,101060.22
2022-11-30T13:09:15.883Z,101059.47
2022-11-30T13:14:22.581Z,101050.28
2022-11-30T13:19:45.648Z,101055.47
2022-11-30T13:24:56.209Z,101053.38
2022-11-30T13:30:12.866Z,101060.00
2022-11-30T13:35:29.638Z,101051.44
2022-11-30T13:40:32.210Z,101057.78
2022-11-30T13:45:34.769Z,101055.56
2022-11-30T13:50:40.438Z,101051.34
2022-11-30T13:55:41.872Z,101060.63
2022-11-30T14:01:03.731Z,101052.81
2022-11-30T14:06:28.815Z,101056.94
2022-11-30T14:11:38.429Z,101061.06
2022-11-30T14:16:42.175Z,101057.97
2022-11-30T14:21:44.606Z,101057.59
2022-11-30T14:26:49.638Z,101067.38
2022-11-30T14:32:02.928Z,101077.50
2022-11-30T14:37:21.757Z,101074.88
2022-11-30T14:42:25.885Z,101080.00
2022-11-30T14:47:29.207Z,101086.84
2022-11-30T14:52:56.159Z,101092.09
2022-11-30T14:58:07.115Z,101085.44
2022-11-30T15:03:28.198Z,101090.25
2022-11-30T15:08:38.508Z,101083.94
2022-11-30T15:13:50.691Z,101095.09
2022-11-30T15:18:57.147Z,101088.84
2022-11-30T15:24:00.986Z,101088.69
2022-11-30T15:29:07.639Z,101088.47
2022-11-30T15:34:19.154Z,101092.69
2022-11-30T15:39:23.589Z,101096.25
2022-11-30T15:44:37.410Z,101099.44
2022-11-30T15:49:38.873Z,101100.00
2022-11-30T15:54:59.972Z,101099.34
2022-11-30T16:00:13.673Z,101107.44
2022-11-30T16:05:15.103Z,101105.19
2022-11-30T16:10:18.887Z,101101.97
2022-11-30T16:15:28.992Z,101105.84
2022-11-30T16:20:30.573Z,101113.28
2022-11-30T16:25:32.175Z,101107.84
2022-11-30T16:30:33.604Z,101113.66
2022-11-30T16:35:34.981Z,101112.78
2022-11-30T16:40:38.984Z,101119.59
2022-11-30T16:45:42.141Z,101126.84
2022-11-30T16:50:44.431Z,101131.59
2022-11-30T16:55:45.890Z,101136.41
2022-11-30T17:00:47.648Z,101136.13
2022-11-30T17:05:49.260Z,101148.03
2022-11-30T17:10:53.191Z,101147.16
2022-11-30T17:15:54.653Z,101150.53
2022-11-30T17:20:56.223Z,101157.47
2022-11-30T17:25:57.721Z,101157.69
2022-11-30T17:30:59.209Z,101158.25
2022-11-30T17:36:02.494Z,101165.47
2022-11-30T17:41:05.587Z,101160.34
2022-11-30T17:46:13.197Z,101163.16
2022-11-30T17:51:14.765Z,101162.00
2022-11-30T17:56:17.355Z,101170.00
2022-11-30T18:01:23.941Z,101159.38
2022-11-30T18:06:25.630Z,101167.19
2022-11-30T18:11:27.250Z,101167.19
2022-11-30T18:16:31.045Z,101172.34
2022-11-30T18:21:32.553Z,101172.63
2022-11-30T18:26:34.488Z,101172.53
2022-11-30T18:31:36.091Z,101188.81
2022-11-30T18:36:37.556Z,101188.75
2022-11-30T18:41:39.164Z,101189.47
2022-11-30T18:46:40.729Z,101191.94
2022-11-30T18:51:42.235Z,101195.66
2022-11-30T18:56:43.672Z,101194.44
2022-11-30T19:01:48.303Z,101198.97
2022-11-30T19:06:49.869Z,101201.59
2022-11-30T19:11:51.396Z,101199.22
2022-11-30T19:16:52.934Z,101200.19
2022-11-30T19:21:54.471Z,101204.16
2022-11-30T19:26:56.092Z,101203.19
2022-11-30T19:31:57.703Z,101203.94
2022-11-30T19:36:59.128Z,101205.06
2022-11-30T19:42:00.590Z,101204.06
2022-11-30T19:47:02.068Z,101204.06
2022-11-30T19:52:03.654Z,101213.38
2022-11-30T19:57:05.070Z,101212.97
2022-11-30T20:02:06.663Z,101205.28
2022-11-30T20:07:08.204Z,101212.53
2022-11-30T20:12:09.658Z,101212.59
2022-11-30T20:17:11.143Z,101217.50
2022-11-30T20:22:12.566Z,101213.72
2022-11-30T20:27:14.047Z,101218.16
2022-11-30T20:32:15.610Z,101208.66
2022-11-30T20:37:17.070Z,101220.03
2022-11-30T20:42:18.647Z,101212.13
2022-11-30T20:47:20.051Z,101223.06
2022-11-30T20:52:21.487Z,101221.44
2022-11-30T20:57:22.982Z,101216.00
2022-11-30T21:02:24.514Z,101217.72
2022-11-30T21:07:26.089Z,101211.00
2022-11-30T21:12:27.667Z,101219.75
2022-11-30T21:17:29.397Z,101222.66
2022-11-30T21:22:31.053Z,101225.00
2022-11-30T21:27:32.476Z,101221.09
2022-11-30T21:32:33.971Z,101217.22
2022-11-30T21:37:35.620Z,101221.09
2022-11-30T21:42:37.040Z,101219.38
2022-11-30T21:47:38.689Z,101211.84
2022-11-30T21:52:40.102Z,101214.03
2022-11-30T21:57:41.629Z,101214.03
2022-11-30T22:02:43.085Z,101219.00
2022-11-30T22:07:45.795Z,101211.31
2022-11-30T22:12:47.351Z,101222.97
2022-11-30T22:17:51.544Z,101219.75
2022-11-30T22:22:53.060Z,101218.31
2022-11-30T22:27:54.511Z,101225.97
2022-11-30T22:32:55.969Z,101224.84
2022-11-30T22:37:57.438Z,101234.03
2022-11-30T22:42:58.899Z,101220.69
2022-11-30T22:48:00.311Z,101225.31
2022-11-30T22:53:03.162Z,101227.50
2022-11-30T22:58:04.822Z,101223.34
2022-11-30T23:03:06.417Z,101225.22
2022-11-30T23:08:08.241Z,101224.63
2022-11-30T23:13:09.872Z,101221.84
2022-11-30T23:18:11.345Z,101221.84
2022-11-30T23:23:12.816Z,101212.88
2022-11-30T23:28:14.985Z,101215.22
2022-11-30T23:33:16.445Z,101215.22
2022-11-30T23:38:17.894Z,101212.59
2022-11-30T23:43:19.317Z,101216.44
2022-11-30T23:48:20.917Z,101205.16
2022-11-30T23:53:23.177Z,101204.31
2022-11-30T23:58:24.603Z,101213.53
